sensor_id;sensor_type;location;lat;lon;timestamp;pressure;altitude;pressure_sealevel;temperature;humidity
78144;BME280;67394;52.522;13.622;2023-03-01T00:00:22;102562.91;;;-3.45;80.12
78144;BME280;67394;52.522;13.622;2023-03-01T00:02:48;102554.22;;;-3.48;80.50
78144;BME280;67394;52.522;13.622;2023-03-01T00:05:14;102551.88;;;-3.47;80.41
78144;BME280;67394;52.522;13.622;2023-03-01T00:07:41;102546.72;;;-3.48;79.20
78144;BME280;67394;52.522;13.622;2023-03-01T00:10:07;102553.63;;;-3.46;79.58
78144;BME280;67394;52.522;13.622;2023-03-01T00:12:34;102548.97;;;-3.51;79.09
78144;BME280;67394;52.522;13.622;2023-03-01T00:15:00;102543.00;;;-3.43;79.90
78144;BME280;67394;52.522;13.622;2023-03-01T00:17:27;102546.84;;;-3.47;79.82
78144;BME280;67394;52.522;13.622;2023-03-01T00:19:54;102539.47;;;-3.45;81.21
78144;BME280;67394;52.522;13.622;2023-03-01T00:22:20;102534.81;;;-3.51;80.00
78144;BME280;67394;52.522;13.622;2023-03-01T00:24:46;102534.94;;;-3.49;80.95
78144;BME280;67394;52.522;13.622;2023-03-01T00:27:13;102532.78;;;-3.55;81.63
78144;BME280;67394;52.522;13.622;2023-03-01T00:29:39;102525.38;;;-3.63;80.71
78144;BME280;67394;52.522;13.622;2023-03-01T00:32:05;102535.72;;;-3.69;81.59
78144;BME280;67394;52.522;13.622;2023-03-01T00:34:32;102536.47;;;-3.70;81.06
78144;BME280;67394;52.522;13.622;2023-03-01T00:36:58;102547.38;;;-3.70;80.89
78144;BME280;67394;52.522;13.622;2023-03-01T00:39:24;102534.47;;;-3.74;80.85
78144;BME280;67394;52.522;13.622;2023-03-01T00:41:50;102536.53;;;-3.79;82.10
78144;BME280;67394;52.522;13.622;2023-03-01T00:44:17;102533.44;;;-3.76;81.17
78144;BME280;67394;52.522;13.622;2023-03-01T00:46:43;102530.06;;;-3.77;81.13
78144;BME280;67394;52.522;13.622;2023-03-01T00:49:09;102530.41;;;-3.82;81.66
78144;BME280;67394;52.522;13.622;2023-03-01T00:51:36;102532.50;;;-3.87;81.72
78144;BME280;67394;52.522;13.622;2023-03-01T00:54:02;102532.72;;;-3.94;82.41
78144;BME280;67394;52.522;13.622;2023-03-01T00:56:29;102529.66;;;-4.00;82.85
78144;BME280;67394;52.522;13.622;2023-03-01T00:58:57;102519.66;;;-4.00;81.81
78144;BME280;67394;52.522;13.622;2023-03-01T01:01:26;102512.69;;;-3.94;81.68
78144;BME280;67394;52.522;13.622;2023-03-01T01:04:01;102509.09;;;-3.87;82.23
78144;BME280;67394;52.522;13.622;2023-03-01T01:06:31;102512.47;;;-3.87;82.24
78144;BME280;67394;52.522;13.622;2023-03-01T01:08:59;102515.56;;;-3.89;82.23
78144;BME280;67394;52.522;13.622;2023-03-01T01:11:27;102510.94;;;-3.95;82.12
78144;BME280;67394;52.522;13.622;2023-03-01T01:13:54;102511.63;;;-4.06;82.07
78144;BME280;67394;52.522;13.622;2023-03-01T01:16:22;102515.00;;;-4.06;82.94
78144;BME280;67394;52.522;13.622;2023-03-01T01:18:49;102511.13;;;-4.02;82.53
78144;BME280;67394;52.522;13.622;2023-03-01T01:21:20;102503.75;;;-4.00;82.28
78144;BME280;67394;52.522;13.622;2023-03-01T01:23:47;102494.88;;;-3.97;81.49
78144;BME280;67394;52.522;13.622;2023-03-01T01:26:25;102499.47;;;-4.01;82.50
78144;BME280;67394;52.522;13.622;2023-03-01T01:28:53;102491.63;;;-3.96;82.36
78144;BME280;67394;52.522;13.622;2023-03-01T01:31:20;102487.38;;;-3.97;81.77
78144;BME280;67394;52.522;13.622;2023-03-01T01:33:47;102478.09;;;-3.98;83.04
78144;BME280;67394;52.522;13.622;2023-03-01T01:36:13;102476.44;;;-4.08;81.73
78144;BME280;67394;52.522;13.622;2023-03-01T01:38:39;102476.66;;;-4.15;83.62
78144;BME280;67394;52.522;13.622;2023-03-01T01:41:06;102475.75;;;-4.15;82.86
78144;BME280;67394;52.522;13.622;2023-03-01T01:43:37;102481.28;;;-4.09;83.34
78144;BME280;67394;52.522;13.622;2023-03-01T01:46:12;102475.03;;;-4.14;83.64
78144;BME280;67394;52.522;13.622;2023-03-01T01:48:46;102476.75;;;-4.13;83.36
78144;BME280;67394;52.522;13.622;2023-03-01T01:51:17;102476.59;;;-4.25;83.64
78144;BME280;67394;52.522;13.622;2023-03-01T01:53:51;102479.19;;;-4.23;82.87
78144;BME280;67394;52.522;13.622;2023-03-01T01:56:20;102485.28;;;-4.30;84.44
78144;BME280;67394;52.522;13.622;2023-03-01T01:58:47;102484.91;;;-4.34;84.72
78144;BME280;67394;52.522;13.622;2023-03-01T02:01:14;102492.88;;;-4.38;85.14
78144;BME280;67394;52.522;13.622;2023-03-01T02:03:42;102486.09;;;-4.39;85.37
78144;BME280;67394;52.522;13.622;2023-03-01T02:08:44;102503.47;;;-4.41;83.60
78144;BME280;67394;52.522;13.622;2023-03-01T02:11:12;102501.72;;;-4.42;84.56
78144;BME280;67394;52.522;13.622;2023-03-01T02:13:40;102500.31;;;-4.49;83.78
78144;BME280;67394;52.522;13.622;2023-03-01T02:16:11;102500.91;;;-4.51;84.27
78144;BME280;67394;52.522;13.622;2023-03-01T02:18:40;102497.53;;;-4.52;83.67
78144;BME280;67394;52.522;13.622;2023-03-01T02:23:53;102489.81;;;-4.45;83.14
78144;BME280;67394;52.522;13.622;2023-03-01T02:26:34;102496.50;;;-4.54;83.41
78144;BME280;67394;52.522;13.622;2023-03-01T02:29:02;102492.44;;;-4.62;83.26
78144;BME280;67394;52.522;13.622;2023-03-01T02:31:29;102487.16;;;-4.65;82.90
78144;BME280;67394;52.522;13.622;2023-03-01T02:33:55;102495.28;;;-4.67;83.87
78144;BME280;67394;52.522;13.622;2023-03-01T02:36:24;102493.91;;;-4.64;83.99
78144;BME280;67394;52.522;13.622;2023-03-01T02:38:53;102495.81;;;-4.61;84.23
78144;BME280;67394;52.522;13.622;2023-03-01T02:41:22;102489.53;;;-4.66;83.15
78144;BME280;67394;52.522;13.622;2023-03-01T02:43:50;102490.06;;;-4.79;83.22
78144;BME280;67394;52.522;13.622;2023-03-01T02:46:19;102482.81;;;-4.76;84.29
78144;BME280;67394;52.522;13.622;2023-03-01T02:48:51;102480.72;;;-4.71;84.22
78144;BME280;67394;52.522;13.622;2023-03-01T02:51:37;102488.97;;;-4.72;84.96
78144;BME280;67394;52.522;13.622;2023-03-01T02:54:31;102484.56;;;-4.75;85.69
78144;BME280;67394;52.522;13.622;2023-03-01T02:57:00;102474.03;;;-4.81;83.93
78144;BME280;67394;52.522;13.622;2023-03-01T02:59:29;102475.66;;;-4.82;84.68
78144;BME280;67394;52.522;13.622;2023-03-01T03:01:56;102471.06;;;-4.77;84.53
78144;BME280;67394;52.522;13.622;2023-03-01T03:04:23;102464.31;;;-4.78;83.81
78144;BME280;67394;52.522;13.622;2023-03-01T03:06:50;102467.56;;;-4.79;84.99
78144;BME280;67394;52.522;13.622;2023-03-01T03:09:17;102473.75;;;-4.84;85.13
78144;BME280;67394;52.522;13.622;2023-03-01T03:11:43;102464.97;;;-4.89;84.64
78144;BME280;67394;52.522;13.622;2023-03-01T03:14:12;102460.56;;;-4.92;86.08
78144;BME280;67394;52.522;13.622;2023-03-01T03:16:44;102464.09;;;-4.90;84.03
78144;BME280;67394;52.522;13.622;2023-03-01T03:19:11;102465.84;;;-4.89;85.01
78144;BME280;67394;52.522;13.622;2023-03-01T03:21:38;102464.97;;;-4.89;84.35
78144;BME280;67394;52.522;13.622;2023-03-01T03:24:05;102463.94;;;-4.91;85.73
78144;BME280;67394;52.522;13.622;2023-03-01T03:26:32;102455.88;;;-4.97;85.57
78144;BME280;67394;52.522;13.622;2023-03-01T03:28:58;102453.25;;;-4.99;85.76
78144;BME280;67394;52.522;13.622;2023-03-01T03:31:25;102459.13;;;-4.98;85.00
78144;BME280;67394;52.522;13.622;2023-03-01T03:33:51;102452.69;;;-5.05;85.43
78144;BME280;67394;52.522;13.622;2023-03-01T03:36:20;102450.03;;;-5.06;85.71
78144;BME280;67394;52.522;13.622;2023-03-01T03:38:47;102448.03;;;-5.10;84.31
78144;BME280;67394;52.522;13.622;2023-03-01T03:41:14;102449.22;;;-5.16;84.66
78144;BME280;67394;52.522;13.622;2023-03-01T03:43:41;102439.69;;;-5.20;85.47
78144;BME280;67394;52.522;13.622;2023-03-01T03:46:09;102441.56;;;-5.17;86.27
78144;BME280;67394;52.522;13.622;2023-03-01T03:48:39;102437.19;;;-5.20;86.29
78144;BME280;67394;52.522;13.622;2023-03-01T03:51:07;102428.19;;;-5.18;84.87
78144;BME280;67394;52.522;13.622;2023-03-01T03:53:35;102425.84;;;-5.16;84.73
78144;BME280;67394;52.522;13.622;2023-03-01T03:56:01;102430.69;;;-5.18;84.01
78144;BME280;67394;52.522;13.622;2023-03-01T03:58:28;102427.31;;;-5.18;85.86
78144;BME280;67394;52.522;13.622;2023-03-01T04:00:56;102424.22;;;-5.16;85.62
78144;BME280;67394;52.522;13.622;2023-03-01T04:03:24;102423.81;;;-5.20;84.66
78144;BME280;67394;52.522;13.622;2023-03-01T04:05:52;102419.56;;;-5.21;85.05
78144;BME280;67394;52.522;13.622;2023-03-01T04:08:22;102432.94;;;-5.21;86.37
78144;BME280;67394;52.522;13.622;2023-03-01T04:10:51;102429.28;;;-5.24;84.81
78144;BME280;67394;52.522;13.622;2023-03-01T04:13:22;102427.22;;;-5.28;85.24
78144;BME280;67394;52.522;13.622;2023-03-01T04:15:49;102434.84;;;-5.27;85.78
78144;BME280;67394;52.522;13.622;2023-03-01T04:18:16;102433.38;;;-5.25;85.65
78144;BME280;67394;52.522;13.622;2023-03-01T04:20:43;102429.88;;;-5.27;85.71
78144;BME280;67394;52.522;13.622;2023-03-01T04:23:15;102421.09;;;-5.32;85.90
78144;BME280;67394;52.522;13.622;2023-03-01T04:28:12;102430.78;;;-5.35;84.91
78144;BME280;67394;52.522;13.622;2023-03-01T04:30:39;102415.22;;;-5.32;84.52
78144;BME280;67394;52.522;13.622;2023-03-01T04:33:06;102417.56;;;-5.34;84.72
78144;BME280;67394;52.522;13.622;2023-03-01T04:35:34;102417.56;;;-5.34;84.87
78144;BME280;67394;52.522;13.622;2023-03-01T04:38:01;102418.25;;;-5.26;85.35
78144;BME280;67394;52.522;13.622;2023-03-01T04:40:28;102421.09;;;-5.32;85.53
78144;BME280;67394;52.522;13.622;2023-03-01T04:42:54;102417.97;;;-5.29;84.95
78144;BME280;67394;52.522;13.622;2023-03-01T04:45:20;102422.38;;;-5.27;85.08
78144;BME280;67394;52.522;13.622;2023-03-01T04:47:47;102419.72;;;-5.28;85.96
78144;BME280;67394;52.522;13.622;2023-03-01T04:50:16;102418.09;;;-5.28;85.96
78144;BME280;67394;52.522;13.622;2023-03-01T04:52:43;102422.06;;;-5.21;86.08
78144;BME280;67394;52.522;13.622;2023-03-01T04:55:10;102419.72;;;-5.20;85.90
78144;BME280;67394;52.522;13.622;2023-03-01T04:57:37;102423.69;;;-5.22;85.50
78144;BME280;67394;52.522;13.622;2023-03-01T05:00:05;102425.69;;;-5.18;85.22
78144;BME280;67394;52.522;13.622;2023-03-01T05:02:32;102415.44;;;-5.21;85.91
78144;BME280;67394;52.522;13.622;2023-03-01T05:04:58;102418.94;;;-5.19;85.54
78144;BME280;67394;52.522;13.622;2023-03-01T05:07:24;102420.44;;;-5.21;85.43
78144;BME280;67394;52.522;13.622;2023-03-01T05:09:51;102413.72;;;-5.30;85.29
78144;BME280;67394;52.522;13.622;2023-03-01T05:12:20;102411.97;;;-5.40;84.90
78144;BME280;67394;52.522;13.622;2023-03-01T05:14:46;102423.19;;;-5.45;85.32
78144;BME280;67394;52.522;13.622;2023-03-01T05:17:12;102419.22;;;-5.43;85.63
78144;BME280;67394;52.522;13.622;2023-03-01T05:19:39;102420.16;;;-5.51;86.46
78144;BME280;67394;52.522;13.622;2023-03-01T05:22:08;102416.00;;;-5.50;86.63
78144;BME280;67394;52.522;13.622;2023-03-01T05:24:35;102411.00;;;-5.50;86.41
78144;BME280;67394;52.522;13.622;2023-03-01T05:27:02;102409.13;;;-5.53;86.89
78144;BME280;67394;52.522;13.622;2023-03-01T05:29:30;102413.09;;;-5.55;86.58
78144;BME280;67394;52.522;13.622;2023-03-01T05:31:59;102406.94;;;-5.59;86.48
78144;BME280;67394;52.522;13.622;2023-03-01T05:34:27;102415.63;;;-5.64;86.58
78144;BME280;67394;52.522;13.622;2023-03-01T05:36:54;102408.84;;;-5.56;86.12
78144;BME280;67394;52.522;13.622;2023-03-01T05:39:22;102406.66;;;-5.62;86.68
78144;BME280;67394;52.522;13.622;2023-03-01T05:41:53;102404.44;;;-5.59;86.37
78144;BME280;67394;52.522;13.622;2023-03-01T05:44:20;102402.53;;;-5.61;86.29
78144;BME280;67394;52.522;13.622;2023-03-01T05:46:47;102403.75;;;-5.66;85.60
78144;BME280;67394;52.522;13.622;2023-03-01T05:49:13;102399.63;;;-5.66;86.21
78144;BME280;67394;52.522;13.622;2023-03-01T05:51:41;102399.03;;;-5.63;86.59
78144;BME280;67394;52.522;13.622;2023-03-01T05:54:08;102405.22;;;-5.68;86.71
78144;BME280;67394;52.522;13.622;2023-03-01T05:56:36;102399.03;;;-5.72;85.73
78144;BME280;67394;52.522;13.622;2023-03-01T05:59:03;102405.06;;;-5.70;85.83
78144;BME280;67394;52.522;13.622;2023-03-01T06:01:34;102409.91;;;-5.71;85.80
78144;BME280;67394;52.522;13.622;2023-03-01T06:04:01;102409.78;;;-5.73;86.84
78144;BME280;67394;52.522;13.622;2023-03-01T06:06:28;102410.69;;;-5.72;87.91
78144;BME280;67394;52.522;13.622;2023-03-01T06:08:55;102403.28;;;-5.71;87.10
78144;BME280;67394;52.522;13.622;2023-03-01T06:11:21;102409.75;;;-5.64;86.94
78144;BME280;67394;52.522;13.622;2023-03-01T06:13:48;102411.53;;;-5.63;86.24
78144;BME280;67394;52.522;13.622;2023-03-01T06:16:14;102405.50;;;-5.65;86.22
78144;BME280;67394;52.522;13.622;2023-03-01T06:18:41;102410.63;;;-5.64;86.44
78144;BME280;67394;52.522;13.622;2023-03-01T06:21:08;102408.53;;;-5.59;86.99
78144;BME280;67394;52.522;13.622;2023-03-01T06:23:35;102411.19;;;-5.58;87.37
78144;BME280;67394;52.522;13.622;2023-03-01T06:26:06;102413.09;;;-5.55;87.54
78144;BME280;67394;52.522;13.622;2023-03-01T06:28:33;102409.13;;;-5.53;87.15
78144;BME280;67394;52.522;13.622;2023-03-01T06:30:59;102413.66;;;-5.49;87.95
78144;BME280;67394;52.522;13.622;2023-03-01T06:33:25;102412.31;;;-5.45;87.62
78144;BME280;67394;52.522;13.622;2023-03-01T06:35:54;102413.50;;;-5.42;87.27
78144;BME280;67394;52.522;13.622;2023-03-01T06:38:21;102423.63;;;-5.40;86.61
78144;BME280;67394;52.522;13.622;2023-03-01T06:40:54;102418.16;;;-5.36;87.44
78144;BME280;67394;52.522;13.622;2023-03-01T06:43:21;102427.84;;;-5.31;87.10
78144;BME280;67394;52.522;13.622;2023-03-01T06:45:47;102424.28;;;-5.24;86.64
78144;BME280;67394;52.522;13.622;2023-03-01T06:48:14;102424.22;;;-5.16;87.09
78144;BME280;67394;52.522;13.622;2023-03-01T06:50:40;102423.28;;;-5.07;87.60
78144;BME280;67394;52.522;13.622;2023-03-01T06:53:07;102414.59;;;-5.02;87.66
78144;BME280;67394;52.522;13.622;2023-03-01T06:55:33;102424.16;;;-4.98;87.18
78144;BME280;67394;52.522;13.622;2023-03-01T06:58:01;102431.72;;;-4.88;87.33
78144;BME280;67394;52.522;13.622;2023-03-01T07:00:28;102426.06;;;-4.77;88.07
78144;BME280;67394;52.522;13.622;2023-03-01T07:02:55;102418.00;;;-4.64;88.11
78144;BME280;67394;52.522;13.622;2023-03-01T07:05:24;102431.59;;;-4.52;87.39
78144;BME280;67394;52.522;13.622;2023-03-01T07:07:50;102432.91;;;-4.47;88.48
78144;BME280;67394;52.522;13.622;2023-03-01T07:10:16;102433.09;;;-4.35;87.63
78144;BME280;67394;52.522;13.622;2023-03-01T07:12:43;102435.53;;;-4.27;88.21
78144;BME280;67394;52.522;13.622;2023-03-01T07:15:10;102430.56;;;-4.17;88.33
78144;BME280;67394;52.522;13.622;2023-03-01T07:17:36;102429.75;;;-4.07;87.91
78144;BME280;67394;52.522;13.622;2023-03-01T07:20:03;102437.44;;;-3.95;87.08
78144;BME280;67394;52.522;13.622;2023-03-01T07:22:29;102433.63;;;-3.82;86.98
78144;BME280;67394;52.522;13.622;2023-03-01T07:24:55;102432.13;;;-3.70;87.15
78144;BME280;67394;52.522;13.622;2023-03-01T07:27:22;102424.78;;;-3.58;87.17
78144;BME280;67394;52.522;13.622;2023-03-01T07:29:48;102421.69;;;-3.45;87.06
78144;BME280;67394;52.522;13.622;2023-03-01T07:32:14;102426.72;;;-3.35;86.03
78144;BME280;67394;52.522;13.622;2023-03-01T07:34:41;102430.53;;;-3.20;86.33
78144;BME280;67394;52.522;13.622;2023-03-01T07:37:07;102435.03;;;-3.06;87.40
78144;BME280;67394;52.522;13.622;2023-03-01T07:39:33;102433.78;;;-2.90;86.76
78144;BME280;67394;52.522;13.622;2023-03-01T07:42:00;102431.16;;;-2.72;85.75
78144;BME280;67394;52.522;13.622;2023-03-01T07:44:26;102430.66;;;-2.58;86.11
78144;BME280;67394;52.522;13.622;2023-03-01T07:46:52;102425.09;;;-2.43;86.24
78144;BME280;67394;52.522;13.622;2023-03-01T07:49:19;102422.31;;;-2.26;85.21
78144;BME280;67394;52.522;13.622;2023-03-01T07:51:45;102422.38;;;-2.04;85.37
78144;BME280;67394;52.522;13.622;2023-03-01T07:54:11;102424.28;;;-1.90;84.06
78144;BME280;67394;52.522;13.622;2023-03-01T07:56:38;102429.53;;;-1.77;83.88
78144;BME280;67394;52.522;13.622;2023-03-01T07:59:04;102419.53;;;-1.65;82.75
78144;BME280;67394;52.522;13.622;2023-03-01T08:01:30;102424.47;;;-1.45;82.55
78144;BME280;67394;52.522;13.622;2023-03-01T08:03:57;102415.78;;;-1.27;82.05
78144;BME280;67394;52.522;13.622;2023-03-01T08:06:23;102421.09;;;-1.12;81.04
78144;BME280;67394;52.522;13.622;2023-03-01T08:08:49;102422.34;;;-0.95;80.58
78144;BME280;67394;52.522;13.622;2023-03-01T08:11:16;102415.06;;;-0.81;80.10
78144;BME280;67394;52.522;13.622;2023-03-01T08:13:43;102414.66;;;-0.52;78.13
78144;BME280;67394;52.522;13.622;2023-03-01T08:16:15;102405.06;;;-0.34;75.70
78144;BME280;67394;52.522;13.622;2023-03-01T08:18:42;102407.22;;;-0.27;77.04
78144;BME280;67394;52.522;13.622;2023-03-01T08:21:12;102401.66;;;-0.23;76.05
78144;BME280;67394;52.522;13.622;2023-03-01T08:23:39;102403.94;;;-0.14;76.45
78144;BME280;67394;52.522;13.622;2023-03-01T08:26:11;102406.13;;;-0.07;75.78
78144;BME280;67394;52.522;13.622;2023-03-01T08:28:39;102400.84;;;0.02;74.16
78144;BME280;67394;52.522;13.622;2023-03-01T08:31:27;102392.94;;;0.20;72.23
78144;BME280;67394;52.522;13.622;2023-03-01T08:33:56;102385.69;;;0.25;71.95
78144;BME280;67394;52.522;13.622;2023-03-01T08:36:24;102384.53;;;0.33;72.37
78144;BME280;67394;52.522;13.622;2023-03-01T08:38:52;102388.06;;;0.35;73.11
78144;BME280;67394;52.522;13.622;2023-03-01T08:41:18;102392.91;;;0.57;71.19
78144;BME280;67394;52.522;13.622;2023-03-01T08:43:45;102389.03;;;0.73;69.90
78144;BME280;67394;52.522;13.622;2023-03-01T08:46:12;102394.19;;;0.88;68.98
78144;BME280;67394;52.522;13.622;2023-03-01T08:48:39;102396.38;;;0.95;67.50
78144;BME280;67394;52.522;13.622;2023-03-01T08:51:09;102391.78;;;0.90;69.99
78144;BME280;67394;52.522;13.622;2023-03-01T08:53:36;102392.78;;;0.92;70.12
78144;BME280;67394;52.522;13.622;2023-03-01T08:56:03;102390.69;;;1.11;68.11
78144;BME280;67394;52.522;13.622;2023-03-01T08:58:29;102386.50;;;1.12;68.08
78144;BME280;67394;52.522;13.622;2023-03-01T09:00:56;102381.75;;;1.16;66.48
78144;BME280;67394;52.522;13.622;2023-03-01T09:03:23;102374.88;;;1.40;63.25
78144;BME280;67394;52.522;13.622;2023-03-01T09:05:51;102367.88;;;1.62;63.24
78144;BME280;67394;52.522;13.622;2023-03-01T09:08:17;102369.06;;;1.67;62.70
78144;BME280;67394;52.522;13.622;2023-03-01T09:10:44;102369.53;;;1.75;63.43
78144;BME280;67394;52.522;13.622;2023-03-01T09:13:10;102362.63;;;1.86;61.46
78144;BME280;67394;52.522;13.622;2023-03-01T09:15:38;102364.66;;;1.91;62.11
78144;BME280;67394;52.522;13.622;2023-03-01T09:18:05;102368.66;;;2.01;62.83
78144;BME280;67394;52.522;13.622;2023-03-01T09:20:32;102369.16;;;2.23;59.64
78144;BME280;67394;52.522;13.622;2023-03-01T09:22:58;102370.50;;;2.31;59.24
78144;BME280;67394;52.522;13.622;2023-03-01T09:25:24;102372.38;;;2.48;58.33
78144;BME280;67394;52.522;13.622;2023-03-01T09:27:52;102373.81;;;2.58;57.94
78144;BME280;67394;52.522;13.622;2023-03-01T09:30:19;102363.63;;;2.71;57.76
78144;BME280;67394;52.522;13.622;2023-03-01T09:32:46;102372.09;;;2.72;60.40
78144;BME280;67394;52.522;13.622;2023-03-01T09:35:12;102365.06;;;2.96;58.95
78144;BME280;67394;52.522;13.622;2023-03-01T09:37:39;102362.19;;;3.04;58.52
78144;BME280;67394;52.522;13.622;2023-03-01T09:40:06;102366.91;;;3.13;57.59
78144;BME280;67394;52.522;13.622;2023-03-01T09:42:33;102365.94;;;3.25;57.47
78144;BME280;67394;52.522;13.622;2023-03-01T09:45:11;102369.09;;;3.36;55.59
78144;BME280;67394;52.522;13.622;2023-03-01T09:47:41;102358.84;;;3.49;55.82
78144;BME280;67394;52.522;13.622;2023-03-01T09:50:16;102365.03;;;3.54;55.49
78144;BME280;67394;52.522;13.622;2023-03-01T09:52:48;102357.06;;;3.63;55.82
78144;BME280;67394;52.522;13.622;2023-03-01T09:55:21;102358.91;;;3.65;55.14
78144;BME280;67394;52.522;13.622;2023-03-01T09:57:58;102355.28;;;3.77;52.68
78144;BME280;67394;52.522;13.622;2023-03-01T10:00:36;102364.34;;;3.88;54.37
78144;BME280;67394;52.522;13.622;2023-03-01T10:05:52;102362.13;;;3.94;53.25
78144;BME280;67394;52.522;13.622;2023-03-01T10:08:30;102362.44;;;3.84;52.90
78144;BME280;67394;52.522;13.622;2023-03-01T10:10:59;102356.28;;;3.95;53.00
78144;BME280;67394;52.522;13.622;2023-03-01T10:16:15;102371.53;;;4.11;52.89
78144;BME280;67394;52.522;13.622;2023-03-01T10:18:45;102372.50;;;4.13;52.70
78144;BME280;67394;52.522;13.622;2023-03-01T10:21:18;102364.25;;;4.17;52.65
78144;BME280;67394;52.522;13.622;2023-03-01T10:23:46;102365.06;;;4.32;54.06
78144;BME280;67394;52.522;13.622;2023-03-01T10:26:38;102361.47;;;4.29;51.81
78144;BME280;67394;52.522;13.622;2023-03-01T10:29:12;102355.03;;;4.35;54.50
78144;BME280;67394;52.522;13.622;2023-03-01T10:31:59;102359.50;;;4.39;50.27
78144;BME280;67394;52.522;13.622;2023-03-01T10:34:35;102353.16;;;4.48;50.46
78144;BME280;67394;52.522;13.622;2023-03-01T10:37:13;102349.19;;;4.53;51.07
78144;BME280;67394;52.522;13.622;2023-03-01T10:39:58;102352.13;;;4.44;52.67
78144;BME280;67394;52.522;13.622;2023-03-01T10:42:31;102354.09;;;4.50;51.77
78144;BME280;67394;52.522;13.622;2023-03-01T10:45:16;102352.19;;;4.62;52.30
78144;BME280;67394;52.522;13.622;2023-03-01T10:47:43;102338.47;;;4.58;50.65
78144;BME280;67394;52.522;13.622;2023-03-01T10:50:21;102339.78;;;4.68;49.88
78144;BME280;67394;52.522;13.622;2023-03-01T10:52:59;102334.00;;;4.70;48.14
78144;BME280;67394;52.522;13.622;2023-03-01T10:55:37;102325.97;;;4.79;51.05
78144;BME280;67394;52.522;13.622;2023-03-01T10:58:20;102321.28;;;4.87;49.65
78144;BME280;67394;52.522;13.622;2023-03-01T11:00:53;102326.94;;;4.99;48.94
78144;BME280;67394;52.522;13.622;2023-03-01T11:03:26;102317.97;;;5.05;48.98
78144;BME280;67394;52.522;13.622;2023-03-01T11:08:40;102311.03;;;5.19;47.46
78144;BME280;67394;52.522;13.622;2023-03-01T11:11:18;102307.91;;;5.25;44.01
78144;BME280;67394;52.522;13.622;2023-03-01T11:16:44;102297.94;;;5.47;44.64
78144;BME280;67394;52.522;13.622;2023-03-01T11:21:47;102300.13;;;5.57;40.82
78144;BME280;67394;52.522;13.622;2023-03-01T11:24:17;102294.88;;;5.72;37.88
78144;BME280;67394;52.522;13.622;2023-03-01T11:26:53;102294.59;;;5.85;40.82
78144;BME280;67394;52.522;13.622;2023-03-01T11:29:35;102292.94;;;5.85;43.61
78144;BME280;67394;52.522;13.622;2023-03-01T11:32:14;102289.63;;;6.06;41.43
78144;BME280;67394;52.522;13.622;2023-03-01T11:34:51;102287.97;;;6.06;41.37
78144;BME280;67394;52.522;13.622;2023-03-01T11:37:31;102288.03;;;6.08;41.36
78144;BME280;67394;52.522;13.622;2023-03-01T11:40:05;102278.78;;;6.10;43.08
78144;BME280;67394;52.522;13.622;2023-03-01T11:42:48;102289.53;;;6.22;43.62
78144;BME280;67394;52.522;13.622;2023-03-01T11:45:16;102284.97;;;6.34;41.30
78144;BME280;67394;52.522;13.622;2023-03-01T11:48:07;102283.59;;;6.42;39.93
78144;BME280;67394;52.522;13.622;2023-03-01T11:50:49;102283.50;;;6.60;39.00
78144;BME280;67394;52.522;13.622;2023-03-01T12:02:32;102284.97;;;6.95;40.80
78144;BME280;67394;52.522;13.622;2023-03-01T12:05:20;102272.22;;;6.95;39.43
78144;BME280;67394;52.522;13.622;2023-03-01T12:08:28;102269.84;;;6.99;40.41
78144;BME280;67394;52.522;13.622;2023-03-01T12:19:29;102268.09;;;7.42;39.65
78144;BME280;67394;52.522;13.622;2023-03-01T12:32:47;102239.75;;;7.79;39.85
78144;BME280;67394;52.522;13.622;2023-03-01T12:35:55;102235.84;;;7.88;38.97
78144;BME280;67394;52.522;13.622;2023-03-01T12:38:42;102232.97;;;8.03;39.73
78144;BME280;67394;52.522;13.622;2023-03-01T12:44:11;102223.13;;;8.14;38.47
78144;BME280;67394;52.522;13.622;2023-03-01T12:46:56;102222.44;;;7.94;35.94
78144;BME280;67394;52.522;13.622;2023-03-01T12:49:32;102223.69;;;8.05;36.19
78144;BME280;67394;52.522;13.622;2023-03-01T12:54:57;102217.09;;;8.12;36.60
78144;BME280;67394;52.522;13.622;2023-03-01T13:02:47;102209.94;;;8.27;38.12
78144;BME280;67394;52.522;13.622;2023-03-01T13:05:30;102216.66;;;8.23;37.50
78144;BME280;67394;52.522;13.622;2023-03-01T13:11:01;102200.34;;;8.43;37.49
78144;BME280;67394;52.522;13.622;2023-03-01T13:13:29;102200.81;;;8.59;38.93
78144;BME280;67394;52.522;13.622;2023-03-01T13:15:56;102201.44;;;8.77;36.86
78144;BME280;67394;52.522;13.622;2023-03-01T13:20:51;102197.97;;;8.75;35.68
78144;BME280;67394;52.522;13.622;2023-03-01T13:34:00;102184.09;;;8.18;33.73
78144;BME280;67394;52.522;13.622;2023-03-01T13:38:59;102175.03;;;8.26;34.49
78144;BME280;67394;52.522;13.622;2023-03-01T13:46:50;102175.53;;;8.41;34.91
78144;BME280;67394;52.522;13.622;2023-03-01T13:49:20;102165.44;;;8.20;32.38
78144;BME280;67394;52.522;13.622;2023-03-01T13:51:48;102162.28;;;8.27;33.19
78144;BME280;67394;52.522;13.622;2023-03-01T13:54:25;102161.41;;;8.27;33.78
78144;BME280;67394;52.522;13.622;2023-03-01T13:56:52;102158.28;;;8.34;33.70
78144;BME280;67394;52.522;13.622;2023-03-01T13:59:21;102161.97;;;8.42;33.30
78144;BME280;67394;52.522;13.622;2023-03-01T14:01:53;102149.81;;;8.35;32.62
78144;BME280;67394;52.522;13.622;2023-03-01T14:04:29;102155.09;;;8.41;31.76
78144;BME280;67394;52.522;13.622;2023-03-01T14:07:18;102151.91;;;8.47;32.35
78144;BME280;67394;52.522;13.622;2023-03-01T14:09:47;102148.88;;;8.33;33.43
78144;BME280;67394;52.522;13.622;2023-03-01T14:15:02;102142.53;;;8.22;34.44
78144;BME280;67394;52.522;13.622;2023-03-01T14:22:52;102131.25;;;8.15;34.37
78144;BME280;67394;52.522;13.622;2023-03-01T14:25:26;102123.59;;;8.15;33.05
78144;BME280;67394;52.522;13.622;2023-03-01T14:30:40;102127.91;;;7.92;33.63